Time;durP1;ratioP1;P1;durP2;ratioP2;P2;SDS_P1;SDS_P2;PMS_P1;PMS_P2;Temp;Humidity;BMP_temperature;BMP_pressure;BME280_temperature;BME280_humidity;BME280_pressure;Samples;Min_cycle;Max_cycle;Signal;HPM_P1;HPM_P2
2022/12/12 00:01:24;;;;;;;8.27;4.90;;;;;;;2.43;78.08;100416.69;4978500;28;20045;-66
2022/12/12 00:03:50;;;;;;;10.27;5.60;;;;;;;2.44;77.86;100418.28;4973171;28;20049;-65
2022/12/12 00:06:16;;;;;;;11.20;5.25;;;;;;;2.41;77.87;100424.19;4973261;28;20039;-66
2022/12/12 00:08:41;;;;;;;14.35;3.55;;;;;;;2.45;78.16;100433.13;4983930;28;20049;-65
2022/12/12 00:11:07;;;;;;;10.57;4.57;;;;;;;2.44;78.12;100426.25;4972818;28;20381;-65
2022/12/12 00:13:33;;;;;;;7.15;3.95;;;;;;;2.42;78.35;100431.84;4978540;28;20035;-65
2022/12/12 00:15:59;;;;;;;15.30;6.00;;;;;;;2.42;78.27;100433.75;4983165;28;20053;-67
2022/12/12 00:18:25;;;;;;;11.93;4.22;;;;;;;2.46;78.29;100429.34;4980598;28;20682;-66
2022/12/12 00:20:55;;;;;;;12.88;5.10;;;;;;;2.39;77.82;100426.34;4981162;28;20561;-66
2022/12/12 00:23:22;;;;;;;7.60;4.25;;;;;;;2.39;78.45;100429.00;4976498;28;20470;-65
2022/12/12 00:26:00;;;;;;;15.65;4.50;;;;;;;2.47;78.00;100426.41;4974891;28;20088;-66
2022/12/12 00:28:25;;;;;;;13.40;5.10;;;;;;;2.37;77.80;100421.34;4982815;28;20058;-66
2022/12/12 00:30:51;;;;;;;13.25;4.80;;;;;;;2.33;78.18;100423.06;4972233;28;20135;-66
2022/12/12 00:33:17;;;;;;;14.80;5.90;;;;;;;2.30;78.13;100421.03;4981533;28;20058;-66
2022/12/12 00:35:42;;;;;;;5.18;3.05;;;;;;;2.31;77.92;100430.53;4977842;28;20031;-66
2022/12/12 00:38:08;;;;;;;6.68;3.03;;;;;;;2.34;78.24;100426.50;4984269;28;20050;-66
2022/12/12 00:40:34;;;;;;;14.05;4.82;;;;;;;2.36;77.95;100424.31;4987082;28;20025;-65
2022/12/12 00:43:00;;;;;;;7.78;4.03;;;;;;;2.33;78.50;100428.38;4978021;28;20046;-66
2022/12/12 00:45:25;;;;;;;13.93;4.47;;;;;;;2.38;78.27;100430.88;4984966;28;20046;-66
2022/12/12 00:47:50;;;;;;;8.88;4.60;;;;;;;2.37;78.19;100417.91;4995087;28;20038;-66
2022/12/12 00:50:16;;;;;;;9.98;4.65;;;;;;;2.41;77.93;100418.88;4980547;28;20166;-66
2022/12/12 00:52:41;;;;;;;14.55;5.47;;;;;;;2.38;78.12;100427.47;4982982;28;20061;-66
2022/12/12 00:55:10;;;;;;;10.85;5.38;;;;;;;2.41;77.95;100424.19;4978722;28;20404;-66
2022/12/12 00:57:36;;;;;;;8.90;5.10;;;;;;;2.37;77.65;100420.56;4972957;28;20122;-65
2022/12/12 01:00:02;;;;;;;7.53;4.60;;;;;;;2.37;78.28;100428.53;4978072;28;20180;-66
2022/12/12 01:02:28;;;;;;;13.02;4.90;;;;;;;2.40;77.63;100419.97;4981927;28;20089;-65
2022/12/12 01:04:53;;;;;;;9.30;4.90;;;;;;;2.39;78.00;100427.16;4988622;28;20030;-66
2022/12/12 01:07:19;;;;;;;7.88;4.72;;;;;;;2.40;77.73;100430.59;4978172;28;20109;-65
2022/12/12 01:09:44;;;;;;;11.10;5.95;;;;;;;2.43;77.82;100419.34;4985178;28;20483;-65
2022/12/12 01:12:10;;;;;;;9.27;4.00;;;;;;;2.45;77.93;100427.81;4982329;28;20041;-65
2022/12/12 01:14:35;;;;;;;6.53;3.60;;;;;;;2.46;77.35;100434.66;4989422;28;20422;-66
2022/12/12 01:17:01;;;;;;;11.43;5.32;;;;;;;2.43;77.51;100424.66;4980022;28;20499;-67
2022/12/12 01:19:26;;;;;;;12.93;4.55;;;;;;;2.44;77.55;100426.25;4981166;28;20094;-65
2022/12/12 01:21:51;;;;;;;12.52;5.20;;;;;;;2.42;77.83;100425.75;4981585;28;20040;-66
2022/12/12 01:24:17;;;;;;;6.75;3.85;;;;;;;2.34;78.04;100435.22;4976874;28;20491;-65
2022/12/12 01:26:42;;;;;;;9.73;4.63;;;;;;;2.27;78.35;100448.19;4973219;28;20058;-66
2022/12/12 01:29:08;;;;;;;9.98;4.05;;;;;;;2.30;78.67;100438.81;4980278;28;20041;-65
2022/12/12 01:31:33;;;;;;;8.05;3.78;;;;;;;2.37;78.53;100447.94;4981517;28;20093;-65
2022/12/12 01:33:59;;;;;;;6.60;3.92;;;;;;;2.34;78.41;100445.84;4977951;28;20038;-65
2022/12/12 01:36:24;;;;;;;13.00;5.22;;;;;;;2.31;78.58;100443.03;4979382;28;20085;-66
2022/12/12 01:38:53;;;;;;;8.45;4.75;;;;;;;2.30;78.51;100450.25;4979533;28;20377;-65
2022/12/12 01:41:20;;;;;;;11.00;4.85;;;;;;;2.32;78.25;100452.59;4973321;28;20654;-65
2022/12/12 01:43:46;;;;;;;10.65;4.80;;;;;;;2.30;78.48;100441.47;4988792;28;20034;-66
2022/12/12 01:46:20;;;;;;;15.68;5.78;;;;;;;2.33;78.23;100444.31;4979773;28;20478;-66
2022/12/12 01:48:53;;;;;;;11.45;4.97;;;;;;;2.28;78.22;100449.75;4969383;28;20045;-66
2022/12/12 01:51:22;;;;;;;10.18;4.30;;;;;;;2.18;78.31;100455.31;4976927;28;20047;-67
2022/12/12 01:53:50;;;;;;;13.02;5.00;;;;;;;2.12;78.53;100453.88;4974288;28;20046;-65
2022/12/12 01:56:18;;;;;;;9.23;4.65;;;;;;;2.13;78.14;100446.69;4976585;28;20342;-65
2022/12/12 01:58:46;;;;;;;5.70;4.22;;;;;;;2.20;78.77;100452.34;4982986;28;20476;-65
2022/12/12 02:01:14;;;;;;;9.65;4.95;;;;;;;2.16;78.82;100446.88;4979220;28;20122;-65
2022/12/12 02:03:41;;;;;;;10.40;4.35;;;;;;;2.10;78.88;100449.94;4987779;28;20034;-65
2022/12/12 02:06:11;;;;;;;8.00;4.95;;;;;;;2.08;79.04;100450.25;4986874;28;20053;-65
2022/12/12 02:08:38;;;;;;;5.53;3.80;;;;;;;2.15;78.37;100450.59;4983404;28;20125;-65
2022/12/12 02:11:04;;;;;;;15.00;5.35;;;;;;;2.10;78.83;100450.75;4988994;28;20045;-66
2022/12/12 02:13:32;;;;;;;14.05;5.13;;;;;;;2.14;78.43;100445.59;4991831;28;20042;-65
2022/12/12 02:16:20;;;;;;;7.47;3.20;;;;;;;2.12;78.42;100447.78;4989380;28;20037;-65
2022/12/12 02:19:03;;;;;;;9.07;4.70;;;;;;;2.14;78.56;100451.69;4981207;28;20561;-66
2022/12/12 02:21:37;;;;;;;6.32;3.75;;;;;;;2.01;78.90;100457.06;4981563;28;20184;-65
2022/12/12 02:24:30;;;;;;;7.43;3.72;;;;;;;2.07;78.88;100450.56;4973070;28;20387;-65
2022/12/12 02:27:11;;;;;;;5.78;3.08;;;;;;;2.08;78.94;100446.81;4974652;28;20102;-65
2022/12/12 02:29:47;;;;;;;7.20;4.38;;;;;;;2.05;78.92;100452.75;4981222;28;20073;-65
2022/12/12 02:32:34;;;;;;;8.05;3.65;;;;;;;2.05;79.08;100447.44;4976674;28;20038;-65
2022/12/12 02:35:04;;;;;;;13.68;5.43;;;;;;;1.97;79.27;100445.50;4978915;28;20027;-65
2022/12/12 02:37:43;;;;;;;9.02;4.68;;;;;;;1.99;79.56;100443.31;4984430;28;20105;-65
2022/12/12 02:40:34;;;;;;;17.05;4.93;;;;;;;2.03;79.56;100450.38;4980800;28;20121;-65
2022/12/12 02:43:15;;;;;;;10.93;4.18;;;;;;;2.01;79.06;100443.81;4975404;28;20499;-65
2022/12/12 02:45:53;;;;;;;10.88;4.78;;;;;;;1.90;79.24;100440.59;4982857;28;20125;-66
2022/12/12 02:48:25;;;;;;;10.38;4.57;;;;;;;1.82;79.69;100444.75;4971419;28;20030;-65
2022/12/12 02:50:52;;;;;;;;;;;;;;;1.76;79.76;100442.56;4972301;28;20559;-65
2022/12/12 02:53:18;;;;;;;10.27;3.72;;;;;;;1.74;80.45;100453.44;4987310;28;19924;-65
2022/12/12 02:55:44;;;;;;;7.78;3.65;;;;;;;1.78;79.95;100441.16;4976316;28;20045;-65
2022/12/12 02:58:09;;;;;;;11.57;4.85;;;;;;;1.72;80.13;100438.94;4983241;28;20039;-65
2022/12/12 03:01:10;;;;;;;5.03;3.38;;;;;;;1.69;80.45;100442.16;4971312;28;20034;-65
2022/12/12 03:10:09;;;;;;;7.53;4.50;;;;;;;1.66;79.61;100442.78;4974484;28;20406;-65
2022/12/12 03:12:48;;;;;;;13.60;4.35;;;;;;;1.56;79.72;100451.75;4983950;28;20042;-66
2022/12/12 03:15:22;;;;;;;11.00;5.13;;;;;;;1.41;81.05;100446.78;4985060;28;20031;-65
2022/12/12 03:17:53;;;;;;;12.93;5.18;;;;;;;1.33;81.10;100446.69;4982445;28;20034;-65
2022/12/12 03:20:25;;;;;;;10.03;4.83;;;;;;;1.37;81.05;100455.63;4985800;28;20410;-65
2022/12/12 03:23:03;;;;;;;11.18;5.53;;;;;;;1.38;81.03;100444.72;4984936;28;20034;-65
2022/12/12 03:25:48;;;;;;;10.02;5.70;;;;;;;1.34;81.18;100443.75;4974859;28;20031;-65
2022/12/12 03:28:46;;;;;;;12.50;4.68;;;;;;;1.22;81.21;100451.44;4983628;28;20121;-65
2022/12/12 03:31:13;;;;;;;14.45;5.85;;;;;;;1.14;81.31;100438.91;4986835;28;20046;-65
2022/12/12 03:34:06;;;;;;;11.75;5.70;;;;;;;1.06;81.35;100444.91;4974772;28;20043;-65
2022/12/12 03:36:38;;;;;;;9.77;4.13;;;;;;;1.11;81.87;100446.63;4976101;28;20044;-65
2022/12/12 03:39:16;;;;;;;10.98;5.25;;;;;;;1.09;81.54;100446.13;4979738;28;20034;-65
2022/12/12 03:41:50;;;;;;;16.48;5.35;;;;;;;1.01;81.96;100439.69;4974922;28;20039;-65
2022/12/12 03:44:41;;;;;;;14.77;5.35;;;;;;;1.02;81.85;100438.63;4976012;28;20039;-65
2022/12/12 03:47:11;;;;;;;12.18;4.63;;;;;;;0.99;81.43;100446.38;4980794;28;20046;-67
2022/12/12 03:49:49;;;;;;;7.28;3.78;;;;;;;0.96;81.91;100441.66;5001864;28;20035;-65
2022/12/12 03:52:26;;;;;;;12.32;4.60;;;;;;;0.92;82.35;100441.47;4976609;28;20031;-65
2022/12/12 03:55:01;;;;;;;7.78;5.28;;;;;;;0.96;81.95;100445.09;4991633;23;20522;-66
2022/12/12 03:57:50;;;;;;;9.05;5.50;;;;;;;0.96;81.64;100455.69;4948451;28;20046;-65
2022/12/12 04:00:17;;;;;;;9.48;4.38;;;;;;;0.87;82.33;100449.53;4966922;28;20078;-66
2022/12/12 04:03:04;;;;;;;9.00;4.00;;;;;;;0.78;82.51;100445.97;4964005;28;20614;-66
2022/12/12 04:12:57;;;;;;;6.85;3.65;;;;;;;0.74;82.60;100455.59;4971913;28;20102;-66
2022/12/12 04:14:55;;;;;;;12.18;4.90;;;;;;;0.62;83.46;100456.06;4970946;28;20495;-65
2022/12/12 04:17:31;;;;;;;9.57;4.90;;;;;;;0.61;83.30;100467.75;4939147;28;20389;-66
2022/12/12 04:23:15;;;;;;;13.82;4.90;;;;;;;0.66;83.46;100466.84;4969677;28;20491;-65
2022/12/12 04:29:06;;;;;;;10.50;4.65;;;;;;;0.55;83.72;100468.13;4962980;28;20517;-66
2022/12/12 04:31:37;;;;;;;10.95;5.18;;;;;;;0.49;84.37;100474.59;4972857;28;20045;-66
2022/12/12 04:34:09;;;;;;;6.28;4.47;;;;;;;0.48;84.21;100473.84;4971214;28;20402;-66
2022/12/12 04:36:35;;;;;;;14.82;4.65;;;;;;;0.55;83.59;100478.72;4972079;28;20034;-65
2022/12/12 04:39:03;;;;;;;9.30;4.50;;;;;;;0.53;84.14;100475.59;4971380;28;20131;-65
2022/12/12 04:41:32;;;;;;;8.57;3.67;;;;;;;0.55;84.10;100482.16;4967737;28;20039;-65
2022/12/12 04:44:00;;;;;;;6.63;3.78;;;;;;;0.62;83.42;100479.16;4973036;28;20046;-65
2022/12/12 04:46:29;;;;;;;11.85;5.43;;;;;;;0.67;83.66;100482.50;4972826;28;20438;-65
2022/12/12 04:48:59;;;;;;;10.02;4.15;;;;;;;0.68;83.31;100483.25;4960841;28;20066;-65
2022/12/12 04:51:29;;;;;;;13.57;6.20;;;;;;;0.62;83.15;100489.75;4970337;28;20555;-65
2022/12/12 04:54:15;;;;;;;12.43;5.13;;;;;;;0.61;82.88;100493.44;4969761;28;20038;-66
2022/12/12 04:56:44;;;;;;;9.60;4.63;;;;;;;0.48;83.32;100495.00;4974068;28;20406;-66
2022/12/12 04:59:09;;;;;;;14.15;6.00;;;;;;;0.40;83.68;100489.59;4965577;28;20063;-66
2022/12/12 05:01:59;;;;;;;11.55;4.10;;;;;;;0.41;83.42;100481.34;4990382;28;20061;-65
2022/12/12 05:04:33;;;;;;;6.00;4.13;;;;;;;0.41;84.05;100488.50;4974478;28;20062;-65
2022/12/12 05:07:26;;;;;;;11.15;4.20;;;;;;;0.38;84.13;100487.25;4974977;28;20038;-66
2022/12/12 05:09:52;;;;;;;8.57;4.38;;;;;;;0.41;84.01;100494.59;4979531;28;20045;-66
2022/12/12 05:12:19;;;;;;;7.00;4.45;;;;;;;0.42;83.63;100490.09;4990226;28;20490;-66
2022/12/12 05:14:46;;;;;;;10.27;3.92;;;;;;;0.33;83.11;100482.00;4958428;28;20034;-66
2022/12/12 05:17:15;;;;;;;10.60;4.50;;;;;;;0.35;83.48;100493.09;4991632;28;20115;-65
2022/12/12 05:19:41;;;;;;;12.57;3.88;;;;;;;0.44;83.73;100490.59;4981528;28;20030;-65
2022/12/12 05:22:06;;;;;;;11.57;4.72;;;;;;;0.41;83.56;100488.50;4991647;28;20041;-65
2022/12/12 05:24:32;;;;;;;12.20;4.97;;;;;;;0.47;83.43;100492.63;4983588;28;20262;-66
2022/12/12 05:26:58;;;;;;;14.85;5.82;;;;;;;0.57;82.58;100481.88;4990304;28;20614;-65
2022/12/12 05:29:24;;;;;;;7.18;4.60;;;;;;;0.60;82.31;100486.59;4973080;28;20117;-66
2022/12/12 05:31:49;;;;;;;13.10;4.72;;;;;;;0.52;82.12;100484.63;4970309;28;20381;-65
2022/12/12 05:34:15;;;;;;;7.88;4.93;;;;;;;0.49;82.65;100490.47;4974405;28;20058;-66
2022/12/12 05:36:40;;;;;;;9.90;3.88;;;;;;;0.44;82.78;100493.22;4983973;28;20037;-65
2022/12/12 05:39:06;;;;;;;10.98;5.18;;;;;;;0.42;82.54;100490.09;4990284;28;20034;-65
2022/12/12 05:41:31;;;;;;;7.57;3.95;;;;;;;0.44;82.50;100494.03;4973716;28;20402;-66
2022/12/12 05:43:56;;;;;;;14.73;6.50;;;;;;;0.50;82.04;100494.72;4974212;28;20129;-65
2022/12/12 05:46:22;;;;;;;11.95;4.65;;;;;;;0.45;82.66;100494.78;4973696;28;20034;-65
2022/12/12 05:48:49;;;;;;;7.03;4.65;;;;;;;0.40;82.61;100493.03;4951549;28;20030;-65
2022/12/12 05:51:18;;;;;;;9.93;5.00;;;;;;;0.34;82.59;100498.69;4962590;28;20035;-65
2022/12/12 05:53:45;;;;;;;9.45;3.95;;;;;;;0.30;83.04;100487.09;4985536;28;20490;-66
2022/12/12 05:56:11;;;;;;;9.45;4.90;;;;;;;0.31;83.25;100494.75;4985538;28;20390;-65
2022/12/12 05:58:38;;;;;;;8.13;4.22;;;;;;;0.31;82.72;100504.59;4975068;28;20453;-65
2022/12/12 06:01:05;;;;;;;8.30;4.28;;;;;;;0.27;83.45;100503.59;4980391;28;20026;-65
2022/12/12 06:03:31;;;;;;;10.75;4.82;;;;;;;0.16;83.60;100496.88;4989107;28;20042;-65
2022/12/12 06:05:57;;;;;;;11.23;3.47;;;;;;;0.07;83.68;100498.59;4990049;28;20046;-66
2022/12/12 06:08:22;;;;;;;9.95;4.60;;;;;;;-0.09;84.37;100511.28;4962751;28;20034;-65
2022/12/12 06:10:48;;;;;;;5.05;4.00;;;;;;;-0.12;85.48;100507.34;4963811;28;20027;-65
2022/12/12 06:13:13;;;;;;;8.32;5.75;;;;;;;0.00;85.39;100513.00;4982081;28;20038;-65
2022/12/12 06:15:40;;;;;;;14.18;3.30;;;;;;;0.00;85.11;100514.88;4986713;28;20552;-66
2022/12/12 06:18:06;;;;;;;8.65;4.63;;;;;;;0.08;85.90;100513.44;4967871;28;20030;-67
2022/12/12 06:20:32;;;;;;;18.38;4.53;;;;;;;0.00;85.72;100515.63;4973299;28;20027;-67
2022/12/12 06:22:57;;;;;;;5.97;4.63;;;;;;;0.10;85.84;100513.94;4964073;28;20041;-67
2022/12/12 06:25:23;;;;;;;11.27;5.38;;;;;;;0.19;85.28;100520.13;4977860;28;20581;-67
2022/12/12 06:27:49;;;;;;;7.60;4.43;;;;;;;0.20;84.58;100519.03;4971181;28;20038;-67
2022/12/12 06:30:14;;;;;;;13.02;4.97;;;;;;;0.15;85.33;100513.84;4977376;28;20058;-66
2022/12/12 06:32:39;;;;;;;9.65;5.22;;;;;;;0.20;84.88;100529.63;4981655;28;20069;-65
2022/12/12 06:35:05;;;;;;;11.38;5.28;;;;;;;0.26;84.64;100539.84;4989175;28;20487;-65
2022/12/12 06:37:51;;;;;;;7.32;4.38;;;;;;;0.11;84.24;100528.72;4988134;28;20042;-66
2022/12/12 06:40:16;;;;;;;8.63;4.90;;;;;;;0.00;84.84;100539.44;4903548;29;20484;-66
2022/12/12 06:42:41;;;;;;;9.88;4.93;;;;;;;-0.11;85.64;100538.03;4884977;29;20056;-65
2022/12/12 06:45:07;;;;;;;10.43;4.40;;;;;;;-0.04;85.92;100543.75;4882582;29;20126;-66
2022/12/12 06:47:34;;;;;;;14.38;5.50;;;;;;;-0.06;85.91;100545.88;4908978;29;20087;-66
2022/12/12 06:49:59;;;;;;;10.35;4.65;;;;;;;0.01;85.85;100542.88;4909006;29;20079;-66
2022/12/12 06:52:24;;;;;;;9.68;4.70;;;;;;;0.04;85.37;100547.59;4908417;29;20064;-66
2022/12/12 06:54:50;;;;;;;11.88;4.32;;;;;;;0.07;86.03;100554.97;4907372;29;20481;-66
2022/12/12 06:57:15;;;;;;;22.60;6.82;;;;;;;0.13;85.99;100556.47;4909313;29;20051;-66
2022/12/12 06:59:41;;;;;;;12.77;5.93;;;;;;;0.08;86.14;100539.91;4911778;29;20386;-66
2022/12/12 07:02:09;;;;;;;12.07;5.68;;;;;;;0.25;86.09;100545.44;4910985;29;20052;-66
2022/12/12 07:04:35;;;;;;;10.10;4.97;;;;;;;0.22;85.54;100548.66;4913466;29;20512;-66
2022/12/12 07:07:00;;;;;;;12.48;4.03;;;;;;;0.33;85.61;100550.09;4913498;29;20044;-66
2022/12/12 07:09:27;;;;;;;7.93;4.97;;;;;;;0.16;84.80;100545.31;4895848;29;20107;-66
2022/12/12 07:11:52;;;;;;;11.20;4.03;;;;;;;0.16;85.64;100545.31;4897006;29;20048;-66
2022/12/12 07:14:17;;;;;;;13.27;4.60;;;;;;;0.10;85.76;100546.44;4912929;29;20050;-66
2022/12/12 07:16:43;;;;;;;13.20;5.07;;;;;;;0.11;85.28;100541.94;4923347;28;20042;-65
2022/12/12 07:19:08;;;;;;;8.23;4.82;;;;;;;0.00;85.15;100549.28;4972572;28;20030;-66
2022/12/12 07:21:34;;;;;;;10.55;4.57;;;;;;;-0.02;85.94;100538.94;4977247;28;20065;-66
2022/12/12 07:23:59;;;;;;;18.67;5.15;;;;;;;-0.06;85.56;100537.94;4977278;28;20038;-66
2022/12/12 07:26:28;;;;;;;11.15;6.60;;;;;;;-0.02;85.31;100544.25;4978465;28;20081;-66
2022/12/12 07:28:53;;;;;;;9.82;5.40;;;;;;;-0.11;85.83;100545.97;4978747;28;20092;-66
2022/12/12 07:31:21;;;;;;;11.68;4.93;;;;;;;-0.10;86.05;100536.94;4980687;28;20062;-66
2022/12/12 07:33:46;;;;;;;8.32;5.38;;;;;;;-0.15;85.87;100541.53;4976316;28;20066;-66
2022/12/12 07:36:14;;;;;;;11.70;5.55;;;;;;;-0.15;86.14;100547.63;4971832;28;20471;-66
2022/12/12 07:38:40;;;;;;;12.18;5.60;;;;;;;-0.09;85.96;100543.03;4981032;28;20026;-66
2022/12/12 07:41:08;;;;;;;15.52;5.35;;;;;;;-0.13;85.87;100544.69;4980769;28;20077;-66
2022/12/12 07:43:35;;;;;;;8.70;4.55;;;;;;;-0.17;85.75;100543.66;4957614;28;20030;-66
2022/12/12 07:46:01;;;;;;;15.35;4.60;;;;;;;-0.09;86.55;100538.53;4975578;28;20035;-66
2022/12/12 07:48:27;;;;;;;11.27;5.30;;;;;;;-0.07;85.88;100546.97;4955992;28;20226;-66
2022/12/12 07:50:53;;;;;;;12.70;5.03;;;;;;;-0.15;86.01;100544.97;4984097;28;20073;-66
2022/12/12 07:53:19;;;;;;;10.05;4.55;;;;;;;-0.18;85.89;100556.13;4975384;28;20039;-66
2022/12/12 07:55:44;;;;;;;14.75;5.30;;;;;;;-0.24;86.15;100551.19;4986364;28;20035;-66
2022/12/12 07:58:10;;;;;;;10.57;4.43;;;;;;;-0.33;85.91;100558.97;4988888;28;20038;-66
2022/12/12 08:00:35;;;;;;;10.77;4.47;;;;;;;-0.32;86.12;100555.25;4992459;28;20076;-66
2022/12/12 08:03:01;;;;;;;15.63;6.15;;;;;;;-0.30;86.50;100558.41;4975765;28;20042;-65
2022/12/12 08:05:27;;;;;;;9.90;4.72;;;;;;;-0.21;86.40;100561.19;4967458;28;20411;-66
2022/12/12 08:07:53;;;;;;;13.38;5.60;;;;;;;-0.22;86.11;100554.34;4985553;28;20034;-66
2022/12/12 08:10:19;;;;;;;14.18;6.63;;;;;;;-0.23;86.57;100558.84;4987162;28;20045;-66
2022/12/12 08:12:44;;;;;;;8.57;5.75;;;;;;;-0.24;86.03;100561.75;4985940;28;20049;-65
2022/12/12 08:15:15;;;;;;;18.02;7.85;;;;;;;-0.23;85.94;100556.19;4986167;28;20080;-66
2022/12/12 08:17:40;;;;;;;14.07;4.55;;;;;;;-0.22;86.30;100555.13;4987573;28;20037;-66
2022/12/12 08:20:07;;;;;;;7.88;4.90;;;;;;;-0.18;86.15;100555.34;4989015;28;20521;-67
2022/12/12 08:22:32;;;;;;;9.55;5.88;;;;;;;-0.23;86.28;100553.53;4991915;28;20551;-66
2022/12/12 08:24:57;;;;;;;8.32;5.30;;;;;;;-0.19;86.14;100549.25;4990858;28;20121;-66
2022/12/12 08:27:23;;;;;;;12.00;5.65;;;;;;;-0.19;86.22;100564.34;4989795;28;20121;-66
2022/12/12 08:29:53;;;;;;;9.35;5.35;;;;;;;-0.17;85.99;100565.63;4952135;28;20198;-66
2022/12/12 08:32:22;;;;;;;8.40;5.78;;;;;;;-0.15;85.91;100560.84;4974583;28;20034;-66
2022/12/12 08:34:47;;;;;;;17.65;4.82;;;;;;;-0.13;85.95;100571.94;4992870;28;20545;-66
2022/12/12 08:37:13;;;;;;;9.73;5.10;;;;;;;-0.02;85.70;100573.34;4981474;28;20046;-66
2022/12/12 08:39:39;;;;;;;9.77;5.20;;;;;;;0.09;86.23;100576.66;4988973;28;20030;-66
2022/12/12 08:42:04;;;;;;;10.13;4.40;;;;;;;0.24;85.92;100583.56;4992636;28;20030;-66
2022/12/12 08:44:30;;;;;;;8.65;4.95;;;;;;;0.25;85.23;100577.22;4974601;28;20133;-66
2022/12/12 08:46:55;;;;;;;23.13;7.50;;;;;;;0.22;85.21;100575.13;4989351;28;20034;-66
2022/12/12 08:49:21;;;;;;;12.07;5.22;;;;;;;0.18;85.35;100576.78;4981860;28;20510;-66
2022/12/12 08:51:46;;;;;;;11.35;5.88;;;;;;;0.14;85.69;100573.13;4988848;28;20052;-66
2022/12/12 08:54:12;;;;;;;18.55;5.65;;;;;;;0.13;85.90;100590.09;4987471;28;20026;-66
2022/12/12 08:56:39;;;;;;;11.98;5.20;;;;;;;0.28;86.38;100595.94;4979860;28;20034;-66
2022/12/12 08:59:04;;;;;;;13.90;4.85;;;;;;;0.47;86.47;100595.91;4971967;28;20039;-67
2022/12/12 09:01:30;;;;;;;15.20;6.20;;;;;;;0.56;86.13;100596.84;4954899;28;20031;-66
2022/12/12 09:03:56;;;;;;;14.10;5.63;;;;;;;0.78;85.99;100591.69;4976840;28;20053;-66
2022/12/12 09:06:44;;;;;;;18.23;6.05;;;;;;;1.01;85.53;100590.75;4983995;28;20041;-66
2022/12/12 09:09:10;;;;;;;13.15;6.55;;;;;;;1.24;84.86;100600.41;4931230;29;20050;-66
2022/12/12 09:11:35;;;;;;;9.38;5.90;;;;;;;1.35;83.91;100593.84;4918023;29;20412;-66
2022/12/12 09:14:00;;;;;;;14.73;5.05;;;;;;;1.42;83.71;100604.84;4933309;29;20048;-66
2022/12/12 09:16:28;;;;;;;11.43;6.18;;;;;;;1.55;83.77;100596.06;4913762;29;20100;-66
2022/12/12 09:18:54;;;;;;;20.00;5.65;;;;;;;1.62;83.11;100599.13;4915889;29;20099;-66
2022/12/12 09:21:20;;;;;;;11.88;6.28;;;;;;;1.70;82.70;100595.00;4946332;28;20050;-66
2022/12/12 09:23:49;;;;;;;8.95;5.28;;;;;;;1.76;82.21;100593.81;4932426;29;20043;-66
2022/12/12 09:26:16;;;;;;;11.77;6.25;;;;;;;1.74;81.41;100595.97;4950553;29;20408;-66
2022/12/12 09:28:42;;;;;;;11.20;5.40;;;;;;;1.76;81.32;100599.88;4939964;29;20050;-66
2022/12/12 09:31:10;;;;;;;16.02;5.97;;;;;;;1.78;81.04;100597.72;4931990;29;20478;-66
2022/12/12 09:33:35;;;;;;;11.30;5.72;;;;;;;1.86;81.28;100593.56;4931183;29;20056;-66
2022/12/12 09:36:03;;;;;;;13.30;5.68;;;;;;;1.92;80.98;100586.31;4913210;29;20036;-66
2022/12/12 09:38:29;;;;;;;16.17;7.60;;;;;;;2.00;80.44;100596.19;4913708;29;20035;-66
2022/12/12 09:40:59;;;;;;;17.17;6.78;;;;;;;2.04;80.57;100597.19;4944810;29;20586;-66
2022/12/12 09:43:27;;;;;;;11.30;5.70;;;;;;;2.07;80.42;100607.22;4950559;28;20125;-66
2022/12/12 09:45:54;;;;;;;12.30;5.72;;;;;;;2.08;80.05;100603.47;4946421;28;20038;-66
2022/12/12 09:48:42;;;;;;;16.88;6.53;;;;;;;2.14;79.82;100602.28;4988733;28;20113;-66
2022/12/12 09:51:10;;;;;;;13.50;5.43;;;;;;;2.18;79.57;100596.06;4973823;28;20061;-66
2022/12/12 09:53:37;;;;;;;12.15;5.35;;;;;;;2.18;79.24;100595.28;4971387;28;20129;-66
2022/12/12 09:56:42;;;;;;;17.50;5.43;;;;;;;2.22;78.99;100599.69;4970050;22;20408;-66
2022/12/12 09:59:16;;;;;;;12.70;5.97;;;;;;;2.21;79.38;100599.97;4967094;28;20130;-65
2022/12/12 10:02:06;;;;;;;15.13;7.50;;;;;;;2.26;79.30;100603.31;4967723;28;20602;-66
2022/12/12 10:04:44;;;;;;;20.15;5.38;;;;;;;2.35;79.46;100601.50;4962164;28;20117;-66
2022/12/12 10:07:20;;;;;;;13.10;6.25;;;;;;;2.44;79.05;100609.56;4973803;28;20133;-66
2022/12/12 10:09:58;;;;;;;9.75;4.90;;;;;;;2.52;79.19;100616.78;4967453;28;20491;-66
2022/12/12 10:12:24;;;;;;;12.98;5.72;;;;;;;2.59;78.82;100607.31;4965526;28;20105;-66
2022/12/12 10:15:01;;;;;;;15.20;6.82;;;;;;;2.55;78.52;100606.34;4977040;28;21192;-65
2022/12/12 10:17:31;;;;;;;14.18;6.13;;;;;;;2.53;78.79;100600.56;4963038;28;20038;-65
2022/12/12 10:20:03;;;;;;;11.52;5.72;;;;;;;2.44;78.73;100606.91;4965207;28;20070;-66
2022/12/12 10:22:36;;;;;;;14.95;6.70;;;;;;;2.46;78.97;100610.00;4969802;28;20042;-65
2022/12/12 10:25:14;;;;;;;14.73;5.97;;;;;;;2.36;78.78;100597.75;4968572;28;20053;-65
2022/12/12 10:27:40;;;;;;;11.40;5.30;;;;;;;2.36;79.55;100600.41;4980226;28;20031;-67
2022/12/12 10:30:14;;;;;;;11.80;5.28;;;;;;;2.35;79.27;100614.00;4969448;28;20399;-66
2022/12/12 10:33:11;;;;;;;11.43;5.93;;;;;;;2.19;80.02;100599.53;4981231;28;20123;-65
2022/12/12 10:36:04;;;;;;;10.10;4.70;;;;;;;2.20;80.86;100606.38;4979249;28;20373;-65
2022/12/12 10:38:50;;;;;;;10.68;5.97;;;;;;;2.22;80.77;100596.25;4961605;28;20101;-65
2022/12/12 10:41:31;;;;;;;12.23;5.88;;;;;;;2.29;81.40;100597.41;4982860;28;20714;-65
2022/12/12 10:44:41;;;;;;;13.70;5.63;;;;;;;2.41;81.23;100594.19;4969885;28;20030;-65
2022/12/12 10:47:09;;;;;;;12.57;5.38;;;;;;;2.46;81.41;100588.75;4975751;28;20105;-66
2022/12/12 10:49:36;;;;;;;14.65;5.97;;;;;;;2.50;81.13;100597.69;4967857;28;20066;-65
2022/12/12 10:52:19;;;;;;;13.18;5.07;;;;;;;2.50;81.30;100590.53;4964963;28;20110;-67
2022/12/12 10:54:49;;;;;;;12.85;4.90;;;;;;;2.55;81.17;100589.63;4981835;28;20391;-66
2022/12/12 10:57:24;;;;;;;12.93;5.22;;;;;;;2.56;81.17;100585.88;4963509;28;20038;-65
2022/12/12 10:59:59;;;;;;;10.63;5.05;;;;;;;2.55;81.47;100589.63;4963449;28;20031;-66
2022/12/12 11:02:27;;;;;;;7.78;3.63;;;;;;;2.41;81.56;100588.88;4968693;28;20118;-65
2022/12/12 11:05:00;;;;;;;12.05;5.45;;;;;;;2.44;82.02;100593.63;4983457;28;20101;-65
2022/12/12 11:07:27;;;;;;;12.07;5.20;;;;;;;2.50;81.70;100589.72;4960696;28;20154;-66
2022/12/12 11:09:54;;;;;;;10.48;5.22;;;;;;;2.47;81.93;100593.00;4980389;28;20027;-65
2022/12/12 11:12:20;;;;;;;9.52;4.28;;;;;;;2.44;82.03;100593.63;4966661;28;20039;-65
2022/12/12 11:14:47;;;;;;;13.32;5.53;;;;;;;2.50;81.93;100590.53;4969471;28;20483;-65
2022/12/12 11:17:20;;;;;;;14.60;5.03;;;;;;;2.49;81.91;100601.47;4967018;28;20113;-66
2022/12/12 11:19:46;;;;;;;11.93;5.75;;;;;;;2.39;81.85;100596.38;4966943;28;20031;-65
2022/12/12 11:22:13;;;;;;;16.05;5.00;;;;;;;2.41;82.26;100588.88;4967147;28;20118;-65
2022/12/12 11:24:44;;;;;;;7.97;4.78;;;;;;;2.41;82.18;100592.34;4967817;28;20594;-64
2022/12/12 11:27:17;;;;;;;14.93;5.18;;;;;;;2.38;82.39;100592.16;4970325;28;20034;-65
2022/12/12 11:29:44;;;;;;;14.23;4.60;;;;;;;2.33;82.36;100601.03;4967470;28;20443;-65
2022/12/12 11:32:36;;;;;;;10.27;4.78;;;;;;;2.35;82.26;100598.06;4967753;28;20038;-65
2022/12/12 11:35:06;;;;;;;10.40;4.88;;;;;;;2.26;82.46;100591.91;4965277;28;20027;-65
2022/12/12 11:37:45;;;;;;;11.85;5.22;;;;;;;2.13;82.96;100582.88;4965168;28;20435;-66
2022/12/12 11:40:22;;;;;;;11.35;4.15;;;;;;;2.14;83.34;100583.69;4964273;28;20035;-66
2022/12/12 11:42:49;;;;;;;8.30;4.43;;;;;;;2.08;83.27;100574.25;4971802;28;20786;-65
2022/12/12 11:45:15;;;;;;;13.75;5.97;;;;;;;2.09;84.07;100575.84;4985942;28;20034;-66
2022/12/12 11:47:43;;;;;;;12.63;4.57;;;;;;;2.15;83.75;100582.59;4970339;28;20395;-65
2022/12/12 11:50:22;;;;;;;11.63;4.13;;;;;;;2.01;83.96;100581.84;4967408;28;20038;-65
2022/12/12 11:52:53;;;;;;;17.90;4.65;;;;;;;1.77;84.99;100572.28;4985465;28;20410;-65
2022/12/12 11:55:44;;;;;;;9.02;4.70;;;;;;;1.83;85.33;100572.94;4972455;28;20030;-65
2022/12/12 11:58:12;;;;;;;12.10;5.65;;;;;;;2.00;85.67;100573.09;4968747;28;20054;-66
2022/12/12 12:00:49;;;;;;;10.93;4.95;;;;;;;2.09;85.45;100573.94;4987054;28;20042;-65